Time;durP1;ratioP1;P1;durP2;ratioP2;P2;SDS_P1;SDS_P2;PMS_P1;PMS_P2;Temp;Humidity;BMP_temperature;BMP_pressure;BME280_temperature;BME280_humidity;BME280_pressure;Samples;Min_cycle;Max_cycle;Signal;HPM_P1;HPM_P2
2022/05/19 00:00:16;;;;;;;3.07;2.87;;;;;;;16.29;nan;95556.13;4759476;30;20449;-75
2022/05/19 00:02:41;;;;;;;3.63;3.43;;;;;;;16.39;nan;95551.25;4761530;30;20191;-75
2022/05/19 00:05:07;;;;;;;3.73;3.40;;;;;;;16.32;nan;95561.00;4755499;30;20463;-77
2022/05/19 00:07:33;;;;;;;4.10;2.70;;;;;;;16.56;nan;95548.13;4740134;30;20192;-74
2022/05/19 00:09:58;;;;;;;4.97;3.40;;;;;;;16.35;nan;95549.19;4763687;30;20461;-74
2022/05/19 00:12:24;;;;;;;3.63;3.07;;;;;;;15.99;nan;95551.34;4751514;30;20225;-75
2022/05/19 00:14:50;;;;;;;3.87;3.57;;;;;;;16.15;nan;95544.78;4752708;30;20644;-74
2022/05/19 00:17:16;;;;;;;4.47;3.80;;;;;;;16.03;nan;95551.72;4758363;30;20278;-75
2022/05/19 00:19:42;;;;;;;9.80;3.67;;;;;;;15.97;nan;95553.38;4746265;30;20454;-74
2022/05/19 00:22:07;;;;;;;5.73;3.70;;;;;;;16.17;nan;95547.22;4745630;30;20200;-74
2022/05/19 00:24:33;;;;;;;8.20;3.70;;;;;;;16.03;nan;95550.91;4749562;30;20203;-75
2022/05/19 00:26:59;;;;;;;9.20;3.37;;;;;;;15.68;nan;95549.28;4755418;30;20199;-75
2022/05/19 00:29:25;;;;;;;6.53;3.70;;;;;;;15.65;nan;95547.06;4762323;30;20971;-75
2022/05/19 00:31:51;;;;;;;3.57;3.27;;;;;;;15.60;nan;95554.78;4748047;30;20207;-73
2022/05/19 00:34:16;;;;;;;4.60;3.60;;;;;;;16.17;nan;95557.78;4757677;30;20480;-74
2022/05/19 00:36:42;;;;;;;3.93;3.53;;;;;;;15.95;nan;95559.84;4750438;30;20203;-74
2022/05/19 00:39:10;;;;;;;5.93;4.00;;;;;;;15.08;nan;95564.22;4757458;30;20259;-74
2022/05/19 00:41:40;;;;;;;4.20;3.90;;;;;;;15.01;nan;95564.22;4749038;30;20196;-75
2022/05/19 00:44:07;;;;;;;5.17;4.50;;;;;;;15.64;nan;95561.25;4749041;30;20461;-74
2022/05/19 00:46:44;;;;;;;6.13;4.43;;;;;;;15.08;nan;95565.06;4766597;30;20788;-74
2022/05/19 00:49:17;;;;;;;4.40;4.00;;;;;;;15.76;nan;95561.50;4762220;30;20949;-74
2022/05/19 00:51:53;;;;;;;5.30;4.87;;;;;;;15.33;nan;95570.59;4765983;30;20477;-74
2022/05/19 00:54:24;;;;;;;7.20;4.50;;;;;;;15.78;nan;95576.13;4763863;30;20484;-74
2022/05/19 00:56:59;;;;;;;6.10;3.83;;;;;;;15.54;nan;95572.22;4759868;30;20431;-74
2022/05/19 00:59:30;;;;;;;6.10;4.97;;;;;;;15.43;nan;95576.25;4732924;30;20458;-75
2022/05/19 01:01:56;;;;;;;9.70;4.80;;;;;;;15.30;nan;95573.59;4757457;30;20434;-74
2022/05/19 01:04:31;;;;;;;5.20;4.33;;;;;;;15.67;nan;95579.34;4766054;30;20465;-75
2022/05/19 01:07:05;;;;;;;6.30;4.70;;;;;;;15.39;nan;95580.31;4751594;30;20430;-74
2022/05/19 01:09:35;;;;;;;4.67;4.20;;;;;;;15.60;nan;95586.44;4752372;30;20457;-74
2022/05/19 01:12:02;;;;;;;4.23;3.93;;;;;;;15.64;nan;95590.28;4751951;30;20537;-74
2022/05/19 01:14:27;;;;;;;6.70;4.30;;;;;;;15.55;nan;95586.22;4750737;30;21017;-74
2022/05/19 01:16:53;;;;;;;3.97;3.70;;;;;;;15.52;nan;95591.91;4765824;30;20516;-74
2022/05/19 01:19:41;;;;;;;4.50;4.10;;;;;;;15.62;nan;95587.84;4758026;30;20218;-74
2022/05/19 01:22:16;;;;;;;4.10;3.80;;;;;;;15.47;nan;95594.34;4761735;30;20202;-75
2022/05/19 01:24:58;;;;;;;4.53;4.10;;;;;;;15.25;nan;95591.84;4749668;30;20449;-75
2022/05/19 01:27:24;;;;;;;3.70;3.40;;;;;;;15.27;nan;95589.84;4748163;30;20915;-75
2022/05/19 01:29:49;;;;;;;4.20;3.87;;;;;;;15.19;nan;95587.38;4749774;30;20518;-74
2022/05/19 01:32:27;;;;;;;6.17;3.90;;;;;;;15.38;nan;95580.50;4755354;30;20264;-75
2022/05/19 01:34:52;;;;;;;4.93;3.93;;;;;;;15.45;nan;95585.81;4765801;30;20275;-74
2022/05/19 01:37:19;;;;;;;4.83;4.43;;;;;;;14.72;nan;95592.53;4754025;30;20438;-76
2022/05/19 01:39:50;;;;;;;4.23;3.83;;;;;;;15.28;nan;95588.81;4749036;30;20273;-74
2022/05/19 01:42:39;;;;;;;4.97;4.27;;;;;;;15.49;nan;95589.66;4763954;30;20465;-75
2022/05/19 01:45:16;;;;;;;4.03;3.73;;;;;;;15.67;nan;95589.91;4758728;30;20448;-74
2022/05/19 01:47:50;;;;;;;4.80;4.40;;;;;;;15.69;nan;95595.78;4747365;30;20425;-73
2022/05/19 01:50:27;;;;;;;10.63;4.60;;;;;;;15.74;nan;95590.72;4747187;30;20571;-74
2022/05/19 01:52:59;;;;;;;4.93;4.20;;;;;;;15.78;nan;95596.41;4762645;30;20980;-74
2022/05/19 01:55:33;;;;;;;4.50;4.10;;;;;;;15.65;nan;95596.38;4749507;30;20504;-74
2022/05/19 01:58:06;;;;;;;4.30;3.90;;;;;;;15.27;nan;95595.13;4753957;30;20462;-74
2022/05/19 02:00:32;;;;;;;5.60;4.67;;;;;;;15.32;nan;95605.88;4747598;30;20450;-74
2022/05/19 02:03:12;;;;;;;4.60;4.20;;;;;;;15.67;nan;95605.72;4754732;30;20457;-74
2022/05/19 02:05:48;;;;;;;9.30;4.10;;;;;;;15.03;nan;95605.19;4763970;30;20424;-74
2022/05/19 02:08:29;;;;;;;4.03;3.73;;;;;;;14.89;nan;95607.97;4750543;30;20961;-74
2022/05/19 02:10:58;;;;;;;5.73;4.97;;;;;;;15.28;nan;95615.19;4759013;30;20468;-74
2022/05/19 02:13:24;;;;;;;4.27;3.93;;;;;;;15.66;nan;95614.66;4747375;30;20525;-74
2022/05/19 02:15:53;;;;;;;4.83;4.47;;;;;;;15.80;nan;95616.31;4752004;30;20481;-74
2022/05/19 02:18:23;;;;;;;4.90;4.33;;;;;;;15.88;nan;95609.19;4747451;30;20457;-74
2022/05/19 02:20:49;;;;;;;6.00;5.40;;;;;;;15.85;nan;95606.97;4745545;30;20445;-74
2022/05/19 02:23:16;;;;;;;8.40;7.57;;;;;;;15.95;nan;95613.50;4760560;30;20469;-74
2022/05/19 02:25:45;;;;;;;13.37;10.20;;;;;;;15.64;nan;95607.97;4752424;30;20494;-74
2022/05/19 02:28:22;;;;;;;10.80;9.73;;;;;;;15.49;nan;95616.84;4754169;30;20530;-74
2022/05/19 02:30:49;;;;;;;11.03;9.10;;;;;;;15.74;nan;95605.75;4760564;30;20433;-74
2022/05/19 02:33:16;;;;;;;10.67;9.60;;;;;;;15.78;nan;95620.16;4764266;30;20461;-74
2022/05/19 02:35:43;;;;;;;11.17;9.70;;;;;;;15.75;nan;95613.47;4764522;30;20555;-75
2022/05/19 02:38:09;;;;;;;12.40;9.60;;;;;;;15.69;nan;95618.69;4763672;30;20448;-74
2022/05/19 02:40:36;;;;;;;12.27;9.73;;;;;;;15.98;nan;95612.25;4764739;30;20432;-74
2022/05/19 02:43:03;;;;;;;13.83;9.57;;;;;;;15.79;nan;95614.69;4756864;30;20450;-75
2022/05/19 02:45:30;;;;;;;10.40;9.10;;;;;;;15.93;nan;95612.03;4745587;30;20547;-75
2022/05/19 02:47:56;;;;;;;9.33;7.70;;;;;;;15.96;nan;95611.66;4746241;30;20434;-75
2022/05/19 02:50:21;;;;;;;10.33;9.33;;;;;;;15.90;nan;95612.47;4746121;30;20553;-73
2022/05/19 02:52:47;;;;;;;9.83;8.90;;;;;;;15.98;nan;95622.81;4758843;30;20469;-74
2022/05/19 02:55:13;;;;;;;10.57;9.47;;;;;;;16.06;nan;95612.03;4764253;30;20307;-74
2022/05/19 02:57:39;;;;;;;9.57;8.10;;;;;;;16.18;nan;95615.69;4747797;30;20444;-75
2022/05/19 03:00:08;;;;;;;7.93;7.10;;;;;;;15.62;nan;95616.06;4760100;30;20470;-75
2022/05/19 03:02:33;;;;;;;8.80;7.20;;;;;;;15.97;nan;95613.25;4730887;30;20291;-74
2022/05/19 03:04:59;;;;;;;9.13;7.97;;;;;;;16.09;nan;95610.84;4749984;30;20434;-74
2022/05/19 03:07:25;;;;;;;10.80;7.63;;;;;;;16.09;nan;95614.28;4739049;30;20207;-74
2022/05/19 03:09:50;;;;;;;12.53;7.27;;;;;;;16.02;nan;95610.03;4761331;30;20231;-74
2022/05/19 03:12:17;;;;;;;9.30;7.57;;;;;;;16.10;nan;95621.16;4764171;30;20187;-74
2022/05/19 03:14:42;;;;;;;12.43;8.47;;;;;;;16.20;nan;95618.13;4734107;30;20227;-75
2022/05/19 03:17:09;;;;;;;11.73;8.73;;;;;;;16.27;nan;95615.47;4761080;30;20430;-74
2022/05/19 03:19:36;;;;;;;11.47;7.43;;;;;;;16.33;nan;95620.75;4748057;30;20207;-73
2022/05/19 03:22:02;;;;;;;9.17;7.57;;;;;;;16.06;nan;95625.25;4762572;30;20440;-75
2022/05/19 03:24:28;;;;;;;9.70;6.10;;;;;;;16.10;nan;95629.09;4746688;30;20442;-75
2022/05/19 03:26:54;;;;;;;9.73;6.20;;;;;;;16.03;nan;95620.38;4736361;30;20433;-74
2022/05/19 03:29:19;;;;;;;10.40;5.53;;;;;;;15.71;nan;95630.69;4761983;30;20452;-74
2022/05/19 03:31:45;;;;;;;10.03;7.70;;;;;;;16.09;nan;95635.41;4763391;30;20207;-74
2022/05/19 03:34:10;;;;;;;6.30;5.17;;;;;;;16.15;nan;95631.94;4764022;30;20223;-74
2022/05/19 03:36:36;;;;;;;5.80;5.30;;;;;;;16.06;nan;95646.38;4749466;30;20207;-75
2022/05/19 03:39:02;;;;;;;5.90;5.30;;;;;;;16.30;nan;95641.50;4749448;30;20204;-75
2022/05/19 03:41:27;;;;;;;6.10;5.40;;;;;;;16.07;nan;95644.53;4745769;30;20196;-74
2022/05/19 03:43:53;;;;;;;5.57;5.07;;;;;;;16.41;nan;95648.78;4763416;30;20471;-74
2022/05/19 03:46:19;;;;;;;10.80;6.30;;;;;;;16.38;nan;95651.84;4762977;30;20282;-74
2022/05/19 03:48:45;;;;;;;9.90;7.80;;;;;;;16.26;nan;95656.09;4763485;30;20205;-74
2022/05/19 03:51:22;;;;;;;9.43;7.80;;;;;;;15.94;nan;95661.22;4763746;30;20477;-74
2022/05/19 03:53:47;;;;;;;7.93;7.23;;;;;;;15.50;nan;95668.63;4751017;30;20204;-75
2022/05/19 03:56:13;;;;;;;9.23;8.10;;;;;;;15.87;nan;95663.03;4750358;30;20551;-75
2022/05/19 03:58:38;;;;;;;11.63;8.70;;;;;;;15.57;nan;95673.91;4746189;30;20299;-74
2022/05/19 04:01:05;;;;;;;8.83;7.67;;;;;;;15.86;nan;95675.41;4750114;30;20195;-74
2022/05/19 04:03:30;;;;;;;6.73;6.13;;;;;;;16.15;nan;95671.56;4767487;30;20282;-74
2022/05/19 04:05:56;;;;;;;9.10;6.10;;;;;;;16.21;nan;95677.84;4762332;30;20468;-74
2022/05/19 04:08:21;;;;;;;6.80;5.53;;;;;;;16.31;nan;95674.81;4767074;30;20282;-74
2022/05/19 04:10:48;;;;;;;15.60;5.73;;;;;;;15.98;nan;95667.69;4766675;30;20209;-74
2022/05/19 04:13:14;;;;;;;9.07;5.73;;;;;;;16.51;nan;95672.94;4766661;30;20258;-74
2022/05/19 04:15:40;;;;;;;7.23;4.70;;;;;;;15.98;nan;95678.25;4741590;30;20485;-74
2022/05/19 04:18:06;;;;;;;5.20;4.87;;;;;;;15.70;nan;95678.41;4764621;30;20450;-74
2022/05/19 04:20:32;;;;;;;7.47;6.07;;;;;;;16.39;nan;95677.25;4767091;30;20195;-74
2022/05/19 04:22:59;;;;;;;6.03;4.73;;;;;;;16.55;nan;95681.28;4760846;30;20469;-74
2022/05/19 04:25:25;;;;;;;6.40;5.40;;;;;;;16.72;nan;95682.47;4757414;30;20207;-74
2022/05/19 04:27:50;;;;;;;6.90;5.23;;;;;;;16.84;nan;95682.66;4756471;30;20436;-75
2022/05/19 04:30:16;;;;;;;8.53;5.90;;;;;;;16.79;nan;95682.47;4732881;30;20458;-76
2022/05/19 04:32:42;;;;;;;7.87;6.10;;;;;;;16.82;nan;95687.34;4762918;30;20199;-75
2022/05/19 04:35:08;;;;;;;6.93;6.23;;;;;;;16.83;nan;95689.00;4766119;30;20227;-74
2022/05/19 04:37:34;;;;;;;8.80;7.00;;;;;;;16.87;nan;95686.75;4766754;30;20433;-75
2022/05/19 04:40:01;;;;;;;7.73;7.03;;;;;;;16.41;nan;95688.44;4763998;30;20977;-74
2022/05/19 04:42:27;;;;;;;8.93;7.73;;;;;;;16.87;nan;95694.69;4750231;30;20203;-75
2022/05/19 04:44:56;;;;;;;7.83;7.17;;;;;;;16.20;nan;95692.91;4755660;30;20480;-75
2022/05/19 04:47:21;;;;;;;9.07;8.27;;;;;;;16.68;nan;95697.13;4749033;30;20184;-74
2022/05/19 04:49:47;;;;;;;9.20;8.30;;;;;;;16.81;nan;95692.81;4752410;30;20449;-75
2022/05/19 04:52:12;;;;;;;11.30;8.33;;;;;;;17.06;nan;95693.00;4784001;30;20360;-76
2022/05/19 04:54:38;;;;;;;9.97;9.07;;;;;;;16.32;nan;95693.09;4768101;30;20219;-74
2022/05/19 04:57:04;;;;;;;9.80;8.90;;;;;;;16.68;nan;95693.69;4768434;30;20317;-74
2022/05/19 04:59:31;;;;;;;11.03;10.00;;;;;;;16.18;nan;95699.38;4778828;30;20433;-74
2022/05/19 05:01:56;;;;;;;10.40;9.43;;;;;;;16.86;nan;95699.13;4769169;30;20460;-75
2022/05/19 05:04:25;;;;;;;8.90;8.00;;;;;;;17.56;nan;95698.47;4766175;30;20799;-74
2022/05/19 05:06:50;;;;;;;11.00;8.80;;;;;;;16.06;nan;95701.81;4766335;30;20196;-74
2022/05/19 05:09:16;;;;;;;9.87;9.07;;;;;;;17.42;nan;95702.22;4780241;30;20440;-75
2022/05/19 05:11:41;;;;;;;9.60;8.80;;;;;;;17.77;nan;95705.28;4778844;30;20290;-74
2022/05/19 05:14:08;;;;;;;11.07;9.17;;;;;;;17.91;nan;95709.50;4765230;30;20282;-75
2022/05/19 05:16:33;;;;;;;9.97;9.10;;;;;;;17.86;nan;95714.63;4775453;30;20563;-74
2022/05/19 05:18:59;;;;;;;10.27;8.77;;;;;;;17.41;nan;95711.16;4765734;30;20437;-74
2022/05/19 05:21:24;;;;;;;10.83;9.77;;;;;;;17.89;nan;95714.19;4754432;30;20675;-74
2022/05/19 05:23:49;;;;;;;11.13;9.70;;;;;;;17.71;nan;95706.94;4771394;30;20252;-74
2022/05/19 05:26:15;;;;;;;11.10;10.10;;;;;;;17.96;nan;95711.50;4771446;30;20212;-74
2022/05/19 05:28:40;;;;;;;10.90;9.90;;;;;;;18.46;nan;95718.69;4783059;30;20198;-74
2022/05/19 05:31:06;;;;;;;10.83;9.93;;;;;;;18.11;nan;95714.66;4783127;30;20272;-74
2022/05/19 05:33:31;;;;;;;13.23;11.00;;;;;;;18.47;nan;95715.00;4783014;30;20627;-74
2022/05/19 05:35:57;;;;;;;10.80;9.70;;;;;;;17.83;nan;95716.84;4775272;30;20203;-74
2022/05/19 05:38:22;;;;;;;11.77;9.63;;;;;;;18.44;nan;95715.41;4765550;30;20278;-74
2022/05/19 05:40:50;;;;;;;10.57;9.53;;;;;;;18.78;nan;95716.78;4768495;30;20231;-75
2022/05/19 05:43:18;;;;;;;10.23;9.33;;;;;;;18.34;nan;95722.03;4783078;30;20291;-75
2022/05/19 05:45:46;;;;;;;11.67;10.67;;;;;;;18.76;nan;95718.81;4770953;30;20818;-75
2022/05/19 05:48:12;;;;;;;10.37;9.17;;;;;;;17.98;nan;95724.53;4765394;30;20417;-75
2022/05/19 05:50:38;;;;;;;17.93;9.67;;;;;;;17.34;nan;95725.25;4775659;30;20493;-75
2022/05/19 05:53:04;;;;;;;11.43;9.23;;;;;;;17.29;nan;95724.25;4760221;30;20438;-75
2022/05/19 05:55:30;;;;;;;11.30;8.43;;;;;;;17.83;nan;95724.78;4747385;30;20228;-75
2022/05/19 05:57:55;;;;;;;12.07;8.80;;;;;;;17.92;nan;95724.34;4747075;30;20434;-75
2022/05/19 06:00:21;;;;;;;10.03;9.10;;;;;;;18.70;nan;95723.16;4747197;30;20280;-74
2022/05/19 06:02:48;;;;;;;11.33;9.00;;;;;;;19.24;nan;95722.66;4747993;30;20320;-74
2022/05/19 06:05:14;;;;;;;10.23;8.80;;;;;;;19.84;nan;95728.03;4747798;30;20184;-74
2022/05/19 06:07:40;;;;;;;9.77;8.87;;;;;;;19.87;nan;95718.81;4747299;30;20492;-75
2022/05/19 06:10:06;;;;;;;9.93;9.03;;;;;;;20.40;nan;95725.97;4745683;30;20649;-74
2022/05/19 06:12:32;;;;;;;8.17;7.33;;;;;;;20.57;nan;95726.13;4730869;30;20204;-74
2022/05/19 06:14:57;;;;;;;14.77;9.27;;;;;;;19.93;nan;95728.53;4751672;30;20504;-74
2022/05/19 06:17:26;;;;;;;11.53;9.93;;;;;;;19.68;nan;95724.13;4748298;30;20302;-75
2022/05/19 06:19:52;;;;;;;11.70;9.03;;;;;;;20.59;nan;95720.56;4761002;30;20190;-75
2022/05/19 06:22:19;;;;;;;10.27;9.33;;;;;;;19.41;nan;95726.31;4748427;30;20524;-75
2022/05/19 06:24:45;;;;;;;9.50;8.77;;;;;;;19.82;nan;95729.28;4763410;30;20195;-75
2022/05/19 06:27:11;;;;;;;9.77;8.80;;;;;;;19.56;nan;95733.91;4763372;30;20457;-75
2022/05/19 06:29:36;;;;;;;10.50;9.50;;;;;;;19.39;nan;95733.69;4751697;30;20477;-75
2022/05/19 06:32:02;;;;;;;10.93;9.47;;;;;;;19.77;nan;95729.13;4758833;30;20207;-75
2022/05/19 06:34:27;;;;;;;9.20;8.07;;;;;;;20.32;nan;95726.31;4746929;30;20235;-75
2022/05/19 06:36:52;;;;;;;9.07;8.17;;;;;;;19.97;nan;95727.03;4748491;30;20241;-75
2022/05/19 06:39:19;;;;;;;9.83;7.97;;;;;;;20.13;nan;95724.75;4748265;30;20254;-75
2022/05/19 06:42:00;;;;;;;7.70;6.93;;;;;;;19.31;nan;95732.16;4764629;30;20222;-75
2022/05/19 06:44:31;;;;;;;7.57;6.67;;;;;;;19.49;nan;95733.16;4764416;30;20436;-75
2022/05/19 06:46:56;;;;;;;8.73;5.90;;;;;;;18.50;nan;95735.78;4764171;30;20448;-75
2022/05/19 06:49:22;;;;;;;5.87;5.47;;;;;;;19.80;nan;95732.16;4753792;30;20534;-75
2022/05/19 06:51:47;;;;;;;4.60;4.20;;;;;;;19.39;nan;95733.69;4764130;30;20241;-75
2022/05/19 06:54:13;;;;;;;8.83;5.33;;;;;;;19.55;nan;95736.78;4763833;30;20695;-75
2022/05/19 06:56:38;;;;;;;6.47;5.50;;;;;;;20.34;nan;95734.88;4747928;30;20210;-75
2022/05/19 06:59:05;;;;;;;6.23;5.23;;;;;;;20.63;nan;95727.06;4750636;30;20214;-75
2022/05/19 07:01:31;;;;;;;8.50;7.23;;;;;;;19.57;nan;95729.38;4747371;30;20215;-74
2022/05/19 07:03:57;;;;;;;6.40;5.67;;;;;;;20.03;nan;95728.81;4745148;30;20513;-75
2022/05/19 07:06:23;;;;;;;7.00;6.03;;;;;;;19.82;nan;95732.75;4747783;30;20246;-75
2022/05/19 07:08:48;;;;;;;3.53;3.23;;;;;;;19.45;nan;95746.06;4761503;30;20463;-75
2022/05/19 07:11:26;;;;;;;4.90;4.40;;;;;;;20.53;nan;95735.59;4764277;30;20460;-75
2022/05/19 07:13:59;;;;;;;8.93;4.67;;;;;;;21.38;nan;95734.31;4763873;30;20574;-75
2022/05/19 07:16:25;;;;;;;7.33;4.53;;;;;;;19.95;nan;95742.38;4751650;30;20462;-75
2022/05/19 07:18:51;;;;;;;6.30;4.83;;;;;;;20.96;nan;95737.16;4746012;30;20469;-75
2022/05/19 07:21:18;;;;;;;7.43;4.43;;;;;;;21.20;nan;95735.25;4747772;30;20454;-76
2022/05/19 07:23:46;;;;;;;3.23;2.83;;;;;;;21.23;nan;95736.66;4745873;30;20255;-75
2022/05/19 07:26:12;;;;;;;5.20;3.20;;;;;;;21.70;nan;95730.41;4759046;30;20469;-75
2022/05/19 07:28:37;;;;;;;5.93;3.40;;;;;;;22.34;nan;95739.06;4746779;30;20468;-75
2022/05/19 07:31:03;;;;;;;4.03;2.27;;;;;;;21.08;nan;95733.63;4747901;30;20973;-74
2022/05/19 07:33:29;;;;;;;4.83;2.63;;;;;;;21.87;nan;95736.59;4747361;30;20207;-75
2022/05/19 07:35:55;;;;;;;3.20;2.90;;;;;;;22.19;nan;95734.22;4747062;30;20234;-74
2022/05/19 07:38:21;;;;;;;3.33;2.50;;;;;;;21.43;nan;95730.94;4758204;30;20639;-75
2022/05/19 07:40:47;;;;;;;3.50;2.93;;;;;;;22.21;nan;95723.31;4759780;30;20438;-75
2022/05/19 07:45:57;;;;;;;2.60;2.40;;;;;;;21.51;nan;95722.59;4763553;30;20483;-75
2022/05/19 07:48:23;;;;;;;3.33;3.00;;;;;;;22.03;nan;95727.84;4747610;30;20432;-75
2022/05/19 07:50:48;;;;;;;2.40;2.20;;;;;;;20.91;nan;95722.91;4748528;30;20489;-75
2022/05/19 07:53:14;;;;;;;4.27;2.33;;;;;;;21.44;nan;95725.41;4761638;30;20263;-75
2022/05/19 07:55:39;;;;;;;2.37;2.20;;;;;;;21.32;nan;95724.56;4746994;30;20277;-75
2022/05/19 07:58:05;;;;;;;4.87;2.40;;;;;;;22.80;nan;95728.28;4763073;30;20210;-75
2022/05/19 08:00:30;;;;;;;4.03;2.37;;;;;;;22.95;nan;95733.03;4762991;30;20210;-75
2022/05/19 08:02:56;;;;;;;2.40;2.20;;;;;;;22.37;nan;95730.56;4752575;30;20204;-75
2022/05/19 08:05:21;;;;;;;3.33;2.33;;;;;;;23.22;nan;95721.69;4746064;30;20199;-75
2022/05/19 08:07:47;;;;;;;2.70;2.60;;;;;;;23.39;nan;95730.44;4758739;30;20194;-75
2022/05/19 08:10:23;;;;;;;2.17;1.97;;;;;;;22.52;nan;95721.19;4747248;30;20596;-75
2022/05/19 08:15:36;;;;;;;1.50;1.40;;;;;;;23.50;nan;95716.16;4749020;30;20496;-75
2022/05/19 08:18:19;;;;;;;4.30;2.20;;;;;;;22.99;nan;95726.97;4763281;30;20436;-75
2022/05/19 08:20:50;;;;;;;3.67;1.90;;;;;;;22.25;nan;95724.50;4758189;30;20515;-75
2022/05/19 08:23:22;;;;;;;7.43;2.10;;;;;;;22.69;nan;95719.34;4763724;30;20414;-74
2022/05/19 08:25:48;;;;;;;4.70;3.40;;;;;;;24.16;nan;95716.06;4746454;30;20903;-75
2022/05/19 08:28:16;;;;;;;3.00;2.20;;;;;;;23.84;nan;95717.91;4760770;30;20479;-75
2022/05/19 08:30:44;;;;;;;3.27;2.40;;;;;;;24.10;nan;95713.63;4746960;30;20521;-75
2022/05/19 08:33:10;;;;;;;3.30;2.37;;;;;;;24.49;nan;95718.75;4762827;30;20441;-76
2022/05/19 08:35:36;;;;;;;2.60;2.40;;;;;;;24.46;nan;95716.59;4747087;30;20516;-75
2022/05/19 08:38:01;;;;;;;1.80;1.70;;;;;;;24.73;nan;95713.88;4760982;30;20460;-75
2022/05/19 08:40:28;;;;;;;1.70;1.47;;;;;;;23.38;nan;95708.28;4762370;30;20195;-75
2022/05/19 08:42:58;;;;;;;2.83;1.63;;;;;;;23.99;nan;95714.56;4745466;30;20214;-75
2022/05/19 08:45:39;;;;;;;8.63;1.80;;;;;;;24.78;nan;95723.84;4747731;30;20442;-75
2022/05/19 08:48:13;;;;;;;4.27;2.17;;;;;;;25.27;nan;95715.56;4760944;30;20517;-75
2022/05/19 08:50:43;;;;;;;4.33;3.00;;;;;;;25.18;nan;95717.13;4753515;30;20507;-75
2022/05/19 08:53:11;;;;;;;4.50;1.57;;;;;;;25.41;nan;95707.88;4766226;30;20410;-75
2022/05/19 08:55:40;;;;;;;1.57;1.30;;;;;;;24.68;nan;95708.47;4763295;30;20483;-75
2022/05/19 08:58:17;;;;;;;1.83;1.73;;;;;;;23.02;nan;95701.63;4766320;30;20432;-74
2022/05/19 09:01:02;;;;;;;2.33;1.60;;;;;;;23.62;nan;95702.69;4748549;30;20504;-75
2022/05/19 09:03:41;;;;;;;6.00;1.53;;;;;;;24.90;nan;95695.78;4748086;30;20426;-75
2022/05/19 09:06:27;;;;;;;2.33;1.77;;;;;;;25.42;nan;95696.06;4748489;30;20454;-75
2022/05/19 09:09:05;;;;;;;3.87;2.00;;;;;;;26.21;nan;95692.25;4759119;30;20453;-75
2022/05/19 09:11:44;;;;;;;5.57;1.33;;;;;;;27.38;nan;95693.19;4766288;30;20443;-75
2022/05/19 09:14:21;;;;;;;4.57;1.90;;;;;;;26.97;nan;95682.53;4758042;30;20475;-75
2022/05/19 09:16:48;;;;;;;1.83;1.67;;;;;;;24.87;nan;95679.41;4765485;30;20448;-75
2022/05/19 09:19:40;;;;;;;4.33;1.60;;;;;;;24.75;nan;95671.59;4765600;30;20496;-75
2022/05/19 09:22:09;;;;;;;1.43;1.20;;;;;;;25.14;nan;95668.59;4761281;30;20449;-75
2022/05/19 09:24:36;;;;;;;3.00;1.80;;;;;;;26.03;nan;95679.38;4761565;30;20443;-75
2022/05/19 09:27:03;;;;;;;6.67;2.50;;;;;;;26.41;nan;95674.56;4764106;30;20454;-75
2022/05/19 09:29:52;;;;;;;4.83;1.70;;;;;;;26.42;nan;95676.16;4750618;30;20840;-75
2022/05/19 09:32:22;;;;;;;2.27;1.50;;;;;;;25.63;nan;95667.44;4753937;30;20521;-76
2022/05/19 09:34:49;;;;;;;5.03;1.40;;;;;;;25.72;nan;95668.53;4759471;30;20470;-75
2022/05/19 09:37:28;;;;;;;6.00;1.30;;;;;;;25.90;nan;95670.72;4747767;30;20438;-75
2022/05/19 09:40:06;;;;;;;1.00;1.00;;;;;;;26.97;nan;95669.09;4748549;30;20423;-75
2022/05/19 09:42:35;;;;;;;1.40;1.30;;;;;;;25.96;nan;95666.19;4747525;30;20427;-75
2022/05/19 09:45:02;;;;;;;1.40;1.30;;;;;;;24.42;nan;95662.00;4749763;30;20764;-75
2022/05/19 09:47:33;;;;;;;2.63;1.60;;;;;;;26.07;nan;95670.50;4747732;30;20426;-75
2022/05/19 09:50:26;;;;;;;2.07;1.87;;;;;;;25.92;nan;95669.69;4749067;30;20462;-75
2022/05/19 09:53:00;;;;;;;1.63;1.50;;;;;;;25.40;nan;95666.88;4744574;30;20443;-75
2022/05/19 09:55:26;;;;;;;3.63;1.20;;;;;;;26.47;nan;95668.09;4760920;30;20493;-75
2022/05/19 09:57:51;;;;;;;1.17;1.17;;;;;;;25.53;nan;95657.50;4763803;30;20429;-75
2022/05/19 10:00:50;;;;;;;1.80;1.37;;;;;;;25.74;nan;95660.22;4747075;30;20215;-75
2022/05/19 10:03:25;;;;;;;2.13;1.20;;;;;;;25.16;nan;95649.59;4747123;30;20192;-75
2022/05/19 10:05:56;;;;;;;1.53;1.40;;;;;;;26.05;nan;95653.06;4758249;30;20510;-75
2022/05/19 10:08:42;;;;;;;1.60;1.50;;;;;;;26.87;nan;95650.34;4764024;30;20437;-75
2022/05/19 10:11:14;;;;;;;1.67;1.57;;;;;;;26.08;nan;95642.59;4759714;30;20488;-75
2022/05/19 10:13:46;;;;;;;1.53;1.27;;;;;;;26.20;nan;95634.28;4747068;30;20431;-75
2022/05/19 10:16:41;;;;;;;1.50;1.40;;;;;;;27.52;nan;95641.50;4747632;30;20518;-75
2022/05/19 10:19:18;;;;;;;2.80;2.30;;;;;;;26.50;nan;95638.00;4714964;30;20444;-75
2022/05/19 10:21:47;;;;;;;2.23;1.50;;;;;;;26.90;nan;95630.16;4764435;30;20455;-75
2022/05/19 10:24:38;;;;;;;3.23;2.93;;;;;;;27.89;nan;95621.38;4741500;30;20430;-75
2022/05/19 10:32:59;;;;;;;1.63;1.50;;;;;;;25.08;nan;95616.03;4750154;30;20521;-75
2022/05/19 10:35:40;;;;;;;1.63;1.53;;;;;;;25.13;nan;95624.91;4754240;30;20656;-75
2022/05/19 10:38:29;;;;;;;2.20;1.77;;;;;;;26.64;nan;95614.94;4753061;30;20434;-75
2022/05/19 10:41:00;;;;;;;2.30;2.10;;;;;;;26.76;nan;95616.50;4746844;30;20441;-75
2022/05/19 10:43:45;;;;;;;1.70;1.60;;;;;;;25.84;nan;95615.47;4747063;30;20446;-75
2022/05/19 10:46:15;;;;;;;3.50;1.87;;;;;;;26.46;nan;95607.41;4755031;30;20465;-75
2022/05/19 10:49:05;;;;;;;4.03;1.90;;;;;;;27.90;nan;95601.47;4746480;30;20499;-75
2022/05/19 10:51:31;;;;;;;3.37;1.40;;;;;;;28.81;nan;95602.53;4746126;30;20501;-75
2022/05/19 10:54:06;;;;;;;2.13;1.93;;;;;;;27.87;nan;95596.59;4747805;30;20449;-75
2022/05/19 10:56:56;;;;;;;1.60;1.50;;;;;;;28.79;nan;95601.22;4757385;30;20210;-75
2022/05/19 10:59:52;;;;;;;4.80;1.03;;;;;;;26.46;nan;95602.03;4743753;30;20561;-75
2022/05/19 11:02:56;;;;;;;3.83;1.60;;;;;;;26.39;nan;95604.19;4746444;30;20474;-74
2022/05/19 11:05:28;;;;;;;1.57;1.47;;;;;;;26.81;nan;95600.38;4680446;30;20465;-74
2022/05/19 11:08:03;;;;;;;2.00;1.83;;;;;;;28.24;nan;95590.69;4692400;30;20424;-75
2022/05/19 11:10:53;;;;;;;2.73;1.63;;;;;;;28.13;nan;95594.56;4730364;30;20539;-74
2022/05/19 11:13:25;;;;;;;1.37;1.30;;;;;;;28.87;nan;95589.78;4748151;30;20513;-75
2022/05/19 11:16:18;;;;;;;1.60;1.50;;;;;;;27.09;nan;95582.81;4764030;30;20788;-74
2022/05/19 11:19:01;;;;;;;1.77;1.67;;;;;;;27.64;nan;95586.28;4757789;30;20513;-74
2022/05/19 11:21:50;;;;;;;6.20;2.57;;;;;;;28.62;nan;95580.91;4754287;30;20485;-75
2022/05/19 11:24:32;;;;;;;2.37;1.60;;;;;;;28.38;nan;95575.50;4747331;30;20555;-75
2022/05/19 11:27:07;;;;;;;4.17;2.00;;;;;;;29.23;nan;95573.19;4756267;30;20519;-75
2022/05/19 11:29:47;;;;;;;1.57;1.47;;;;;;;28.41;nan;95563.34;4763664;30;20602;-75
2022/05/19 11:32:22;;;;;;;2.27;1.87;;;;;;;28.42;nan;95560.34;4759141;30;20822;-75
2022/05/19 11:35:25;;;;;;;4.40;2.20;;;;;;;28.36;nan;95555.28;4746383;30;20477;-75
2022/05/19 11:38:15;;;;;;;3.60;1.60;;;;;;;28.74;nan;95548.19;4713897;30;20470;-75
2022/05/19 11:40:56;;;;;;;2.00;1.60;;;;;;;29.86;nan;95555.06;4746019;30;20445;-75
2022/05/19 11:43:36;;;;;;;4.03;2.80;;;;;;;30.54;nan;95559.84;4747367;30;20421;-75
2022/05/19 11:46:09;;;;;;;3.20;1.80;;;;;;;28.05;nan;95544.81;4759574;30;20471;-75
2022/05/19 11:57:42;;;;;;;1.83;1.73;;;;;;;30.13;nan;95530.06;4762597;30;20448;-75
2022/05/19 12:00:12;;;;;;;1.00;1.00;;;;;;;27.50;nan;95523.44;4745736;30;20452;-75
2022/05/19 12:03:13;;;;;;;1.93;1.83;;;;;;;28.15;nan;95517.00;4746635;30;20453;-74
2022/05/19 12:05:56;;;;;;;2.23;1.47;;;;;;;29.59;nan;95519.56;4747344;30;20509;-75
2022/05/19 12:08:28;;;;;;;2.03;1.70;;;;;;;29.57;nan;95519.03;4750208;30;20513;-74
2022/05/19 12:11:09;;;;;;;4.10;2.13;;;;;;;30.64;nan;95517.50;4758675;30;20479;-75
2022/05/19 12:13:36;;;;;;;3.10;1.80;;;;;;;30.45;nan;95510.31;4755715;30;20468;-75
2022/05/19 12:16:10;;;;;;;2.63;2.00;;;;;;;30.32;nan;95505.69;4763061;30;21024;-75
2022/05/19 12:18:43;;;;;;;1.50;1.40;;;;;;;31.24;nan;95503.00;4745720;30;20431;-75
2022/05/19 12:21:09;;;;;;;4.80;1.70;;;;;;;30.60;nan;95511.91;4744415;30;20450;-74
2022/05/19 12:23:40;;;;;;;3.13;2.03;;;;;;;31.44;nan;95499.06;4758135;30;20964;-75